sensor_id;sensor_type;location;lat;lon;timestamp;pressure;altitude;pressure_sealevel;temperature
67353;BMP180;54238;52.278;21.056;2023-09-30T00:01:58;100635.80;;;18.88
67353;BMP180;54238;52.278;21.056;2023-09-30T00:04:27;100631.40;;;18.88
67353;BMP180;54238;52.278;21.056;2023-09-30T00:06:57;100630.40;;;18.82
67353;BMP180;54238;52.278;21.056;2023-09-30T00:09:29;100628.80;;;18.80
67353;BMP180;54238;52.278;21.056;2023-09-30T00:11:58;100629.80;;;18.80
67353;BMP180;54238;52.278;21.056;2023-09-30T00:14:26;100630.40;;;18.80
67353;BMP180;54238;52.278;21.056;2023-09-30T00:16:53;100628.80;;;18.80
67353;BMP180;54238;52.278;21.056;2023-09-30T00:19:25;100623.60;;;18.80
67353;BMP180;54238;52.278;21.056;2023-09-30T00:21:55;100619.80;;;18.80
67353;BMP180;54238;52.278;21.056;2023-09-30T00:24:28;100621.60;;;18.80
67353;BMP180;54238;52.278;21.056;2023-09-30T00:26:57;100623.00;;;18.80
67353;BMP180;54238;52.278;21.056;2023-09-30T00:29:29;100621.60;;;18.80
67353;BMP180;54238;52.278;21.056;2023-09-30T00:31:56;100622.80;;;18.80
67353;BMP180;54238;52.278;21.056;2023-09-30T00:34:27;100620.00;;;18.80
67353;BMP180;54238;52.278;21.056;2023-09-30T00:36:57;100617.20;;;18.80
67353;BMP180;54238;52.278;21.056;2023-09-30T00:39:24;100619.00;;;18.80
67353;BMP180;54238;52.278;21.056;2023-09-30T00:41:58;100618.80;;;18.78
67353;BMP180;54238;52.278;21.056;2023-09-30T00:44:30;100616.00;;;18.70
67353;BMP180;54238;52.278;21.056;2023-09-30T00:47:03;100610.60;;;18.70
67353;BMP180;54238;52.278;21.056;2023-09-30T00:49:35;100612.40;;;18.70
67353;BMP180;54238;52.278;21.056;2023-09-30T00:52:07;100611.40;;;18.70
67353;BMP180;54238;52.278;21.056;2023-09-30T00:54:35;100610.40;;;18.70
67353;BMP180;54238;52.278;21.056;2023-09-30T00:57:07;100609.60;;;18.66
67353;BMP180;54238;52.278;21.056;2023-09-30T00:59:42;100616.00;;;18.60
67353;BMP180;54238;52.278;21.056;2023-09-30T01:02:14;100611.20;;;18.60
67353;BMP180;54238;52.278;21.056;2023-09-30T01:04:44;100610.60;;;18.60
67353;BMP180;54238;52.278;21.056;2023-09-30T01:07:13;100615.80;;;18.60
67353;BMP180;54238;52.278;21.056;2023-09-30T01:09:43;100610.80;;;18.60
67353;BMP180;54238;52.278;21.056;2023-09-30T01:12:10;100607.20;;;18.60
67353;BMP180;54238;52.278;21.056;2023-09-30T01:14:40;100620.40;;;18.60
67353;BMP180;54238;52.278;21.056;2023-09-30T01:17:14;100619.00;;;18.52
67353;BMP180;54238;52.278;21.056;2023-09-30T01:19:44;100618.80;;;18.50
67353;BMP180;54238;52.278;21.056;2023-09-30T01:22:12;100624.00;;;18.50
67353;BMP180;54238;52.278;21.056;2023-09-30T01:24:43;100629.20;;;18.50
67353;BMP180;54238;52.278;21.056;2023-09-30T01:27:11;100624.20;;;18.50
67353;BMP180;54238;52.278;21.056;2023-09-30T01:29:39;100619.60;;;18.50
67353;BMP180;54238;52.278;21.056;2023-09-30T01:32:09;100614.40;;;18.58
67353;BMP180;54238;52.278;21.056;2023-09-30T01:34:38;100611.80;;;18.60
67353;BMP180;54238;52.278;21.056;2023-09-30T01:37:05;100607.80;;;18.60
67353;BMP180;54238;52.278;21.056;2023-09-30T01:39:38;100610.80;;;18.60
67353;BMP180;54238;52.278;21.056;2023-09-30T01:42:06;100607.60;;;18.60
67353;BMP180;54238;52.278;21.056;2023-09-30T01:44:35;100606.40;;;18.60
67353;BMP180;54238;52.278;21.056;2023-09-30T01:47:03;100605.00;;;18.60
67353;BMP180;54238;52.278;21.056;2023-09-30T01:49:32;100601.40;;;18.60
67353;BMP180;54238;52.278;21.056;2023-09-30T01:52:06;100605.60;;;18.60
67353;BMP180;54238;52.278;21.056;2023-09-30T01:54:33;100600.40;;;18.60
67353;BMP180;54238;52.278;21.056;2023-09-30T01:57:00;100595.00;;;18.60
67353;BMP180;54238;52.278;21.056;2023-09-30T01:59:27;100595.80;;;18.60
67353;BMP180;54238;52.278;21.056;2023-09-30T02:01:57;100590.60;;;18.50
67353;BMP180;54238;52.278;21.056;2023-09-30T02:04:24;100594.80;;;18.50
67353;BMP180;54238;52.278;21.056;2023-09-30T02:06:51;100595.20;;;18.42
67353;BMP180;54238;52.278;21.056;2023-09-30T02:09:18;100592.80;;;18.40
67353;BMP180;54238;52.278;21.056;2023-09-30T02:11:45;100588.80;;;18.40
67353;BMP180;54238;52.278;21.056;2023-09-30T02:14:11;100582.00;;;18.40
67353;BMP180;54238;52.278;21.056;2023-09-30T02:16:43;100586.40;;;18.40
67353;BMP180;54238;52.278;21.056;2023-09-30T02:19:12;100582.60;;;18.30
67353;BMP180;54238;52.278;21.056;2023-09-30T02:21:49;100586.20;;;18.30
67353;BMP180;54238;52.278;21.056;2023-09-30T02:24:20;100583.40;;;18.30
67353;BMP180;54238;52.278;21.056;2023-09-30T02:26:53;100582.40;;;18.30
67353;BMP180;54238;52.278;21.056;2023-09-30T02:29:20;100579.20;;;18.30
67353;BMP180;54238;52.278;21.056;2023-09-30T02:31:50;100583.60;;;18.30
67353;BMP180;54238;52.278;21.056;2023-09-30T02:34:24;100585.40;;;18.30
67353;BMP180;54238;52.278;21.056;2023-09-30T02:36:53;100582.80;;;18.20
67353;BMP180;54238;52.278;21.056;2023-09-30T02:39:22;100586.60;;;18.20
67353;BMP180;54238;52.278;21.056;2023-09-30T02:41:59;100590.20;;;18.20
67353;BMP180;54238;52.278;21.056;2023-09-30T02:44:26;100585.60;;;18.20
67353;BMP180;54238;52.278;21.056;2023-09-30T02:46:53;100590.40;;;18.20
67353;BMP180;54238;52.278;21.056;2023-09-30T02:49:25;100585.20;;;18.20
67353;BMP180;54238;52.278;21.056;2023-09-30T02:51:52;100584.00;;;18.18
67353;BMP180;54238;52.278;21.056;2023-09-30T02:54:21;100590.20;;;18.10
67353;BMP180;54238;52.278;21.056;2023-09-30T02:56:51;100585.00;;;18.10
67353;BMP180;54238;52.278;21.056;2023-09-30T02:59:24;100585.20;;;18.10
67353;BMP180;54238;52.278;21.056;2023-09-30T03:01:51;100589.00;;;18.14
67353;BMP180;54238;52.278;21.056;2023-09-30T03:04:23;100589.60;;;18.14
67353;BMP180;54238;52.278;21.056;2023-09-30T03:06:55;100588.40;;;18.20
67353;BMP180;54238;52.278;21.056;2023-09-30T03:09:27;100586.80;;;18.20
67353;BMP180;54238;52.278;21.056;2023-09-30T03:11:54;100582.80;;;18.20
67353;BMP180;54238;52.278;21.056;2023-09-30T03:14:28;100575.20;;;18.20
67353;BMP180;54238;52.278;21.056;2023-09-30T03:16:58;100572.40;;;18.20
67353;BMP180;54238;52.278;21.056;2023-09-30T03:19:26;100572.20;;;18.20
67353;BMP180;54238;52.278;21.056;2023-09-30T03:21:53;100565.60;;;18.20
67353;BMP180;54238;52.278;21.056;2023-09-30T03:24:20;100568.40;;;18.20
67353;BMP180;54238;52.278;21.056;2023-09-30T03:26:49;100567.00;;;18.20
67353;BMP180;54238;52.278;21.056;2023-09-30T03:29:19;100566.60;;;18.20
67353;BMP180;54238;52.278;21.056;2023-09-30T03:31:48;100569.20;;;18.20
67353;BMP180;54238;52.278;21.056;2023-09-30T03:34:15;100571.20;;;18.20
67353;BMP180;54238;52.278;21.056;2023-09-30T03:36:43;100568.60;;;18.20
67353;BMP180;54238;52.278;21.056;2023-09-30T03:39:11;100571.40;;;18.14
67353;BMP180;54238;52.278;21.056;2023-09-30T03:41:42;100572.60;;;18.12
67353;BMP180;54238;52.278;21.056;2023-09-30T03:44:16;100565.20;;;18.10
67353;BMP180;54238;52.278;21.056;2023-09-30T03:46:45;100571.80;;;18.10
67353;BMP180;54238;52.278;21.056;2023-09-30T03:49:14;100568.20;;;18.10
67353;BMP180;54238;52.278;21.056;2023-09-30T03:51:47;100563.60;;;18.10
67353;BMP180;54238;52.278;21.056;2023-09-30T03:54:20;100559.00;;;18.08
67353;BMP180;54238;52.278;21.056;2023-09-30T03:56:49;100557.00;;;18.10
67353;BMP180;54238;52.278;21.056;2023-09-30T03:59:17;100564.00;;;18.10
67353;BMP180;54238;52.278;21.056;2023-09-30T04:01:45;100557.40;;;18.08
67353;BMP180;54238;52.278;21.056;2023-09-30T04:04:14;100551.60;;;18.00
67353;BMP180;54238;52.278;21.056;2023-09-30T04:06:43;100558.40;;;18.00
67353;BMP180;54238;52.278;21.056;2023-09-30T04:09:12;100559.60;;;17.92
67353;BMP180;54238;52.278;21.056;2023-09-30T04:11:40;100564.00;;;17.90
67353;BMP180;54238;52.278;21.056;2023-09-30T04:14:12;100569.80;;;17.90
67353;BMP180;54238;52.278;21.056;2023-09-30T04:16:48;100569.00;;;17.90
67353;BMP180;54238;52.278;21.056;2023-09-30T04:19:20;100566.00;;;17.80
67353;BMP180;54238;52.278;21.056;2023-09-30T04:21:52;100564.80;;;17.80
67353;BMP180;54238;52.278;21.056;2023-09-30T04:24:21;100565.40;;;17.80
67353;BMP180;54238;52.278;21.056;2023-09-30T04:26:49;100558.00;;;17.80
67353;BMP180;54238;52.278;21.056;2023-09-30T04:29:25;100564.60;;;17.88
67353;BMP180;54238;52.278;21.056;2023-09-30T04:31:59;100563.40;;;17.84
67353;BMP180;54238;52.278;21.056;2023-09-30T04:34:27;100565.00;;;17.90
67353;BMP180;54238;52.278;21.056;2023-09-30T04:36:59;100566.80;;;17.90
67353;BMP180;54238;52.278;21.056;2023-09-30T04:39:33;100561.40;;;17.90
67353;BMP180;54238;52.278;21.056;2023-09-30T04:42:06;100561.40;;;17.90
67353;BMP180;54238;52.278;21.056;2023-09-30T04:44:38;100561.00;;;18.00
67353;BMP180;54238;52.278;21.056;2023-09-30T04:47:08;100560.80;;;18.00
67353;BMP180;54238;52.278;21.056;2023-09-30T04:49:35;100558.20;;;18.06
67353;BMP180;54238;52.278;21.056;2023-09-30T04:52:07;100552.80;;;18.10
67353;BMP180;54238;52.278;21.056;2023-09-30T04:54:35;100557.80;;;18.10
67353;BMP180;54238;52.278;21.056;2023-09-30T04:57:04;100561.00;;;18.10
67353;BMP180;54238;52.278;21.056;2023-09-30T04:59:34;100560.20;;;18.12
67353;BMP180;54238;52.278;21.056;2023-09-30T05:02:06;100556.80;;;18.20
67353;BMP180;54238;52.278;21.056;2023-09-30T05:04:41;100554.60;;;18.30
67353;BMP180;54238;52.278;21.056;2023-09-30T05:07:10;100552.80;;;18.30
67353;BMP180;54238;52.278;21.056;2023-09-30T05:09:41;100551.60;;;18.40
67353;BMP180;54238;52.278;21.056;2023-09-30T05:12:10;100556.60;;;18.40
67353;BMP180;54238;52.278;21.056;2023-09-30T05:14:42;100556.20;;;18.50
67353;BMP180;54238;52.278;21.056;2023-09-30T05:17:10;100557.00;;;18.52
67353;BMP180;54238;52.278;21.056;2023-09-30T05:19:41;100549.40;;;18.60
67353;BMP180;54238;52.278;21.056;2023-09-30T05:22:18;100555.40;;;18.60
67353;BMP180;54238;52.278;21.056;2023-09-30T05:24:51;100563.20;;;18.68
67353;BMP180;54238;52.278;21.056;2023-09-30T05:27:25;100567.00;;;18.60
67353;BMP180;54238;52.278;21.056;2023-09-30T05:29:52;100567.80;;;18.60
67353;BMP180;54238;52.278;21.056;2023-09-30T05:32:19;100571.80;;;18.60
67353;BMP180;54238;52.278;21.056;2023-09-30T05:34:51;100574.00;;;18.60
67353;BMP180;54238;52.278;21.056;2023-09-30T05:37:25;100579.20;;;18.60
67353;BMP180;54238;52.278;21.056;2023-09-30T05:39:57;100577.80;;;18.60
67353;BMP180;54238;52.278;21.056;2023-09-30T05:42:24;100577.00;;;18.60
67353;BMP180;54238;52.278;21.056;2023-09-30T05:44:51;100580.80;;;18.58
67353;BMP180;54238;52.278;21.056;2023-09-30T05:47:23;100584.40;;;18.52
67353;BMP180;54238;52.278;21.056;2023-09-30T05:49:54;100585.80;;;18.52
67353;BMP180;54238;52.278;21.056;2023-09-30T05:52:24;100584.80;;;18.50
67353;BMP180;54238;52.278;21.056;2023-09-30T05:54:58;100583.60;;;18.50
67353;BMP180;54238;52.278;21.056;2023-09-30T05:57:30;100593.40;;;18.50
67353;BMP180;54238;52.278;21.056;2023-09-30T06:00:00;100595.80;;;18.54
67353;BMP180;54238;52.278;21.056;2023-09-30T06:02:30;100602.20;;;18.60
67353;BMP180;54238;52.278;21.056;2023-09-30T06:05:00;100611.40;;;18.60
67353;BMP180;54238;52.278;21.056;2023-09-30T06:07:27;100606.80;;;18.60
67353;BMP180;54238;52.278;21.056;2023-09-30T06:09:55;100611.40;;;18.60
67353;BMP180;54238;52.278;21.056;2023-09-30T06:12:22;100614.40;;;18.60
67353;BMP180;54238;52.278;21.056;2023-09-30T06:14:54;100615.00;;;18.60
67353;BMP180;54238;52.278;21.056;2023-09-30T06:17:23;100619.80;;;18.60
67353;BMP180;54238;52.278;21.056;2023-09-30T06:19:50;100617.40;;;18.60
67353;BMP180;54238;52.278;21.056;2023-09-30T06:22:22;100629.80;;;18.60
67353;BMP180;54238;52.278;21.056;2023-09-30T06:24:50;100631.20;;;18.60
67353;BMP180;54238;52.278;21.056;2023-09-30T06:27:17;100628.60;;;18.60
67353;BMP180;54238;52.278;21.056;2023-09-30T06:29:48;100631.00;;;18.60
67353;BMP180;54238;52.278;21.056;2023-09-30T06:32:17;100634.80;;;18.60
67353;BMP180;54238;52.278;21.056;2023-09-30T06:34:53;100634.80;;;18.50
67353;BMP180;54238;52.278;21.056;2023-09-30T06:37:28;100634.80;;;18.50
67353;BMP180;54238;52.278;21.056;2023-09-30T06:39:59;100634.60;;;18.50
67353;BMP180;54238;52.278;21.056;2023-09-30T06:42:29;100639.00;;;18.48
67353;BMP180;54238;52.278;21.056;2023-09-30T06:44:57;100641.80;;;18.40
67353;BMP180;54238;52.278;21.056;2023-09-30T06:47:26;100639.40;;;18.40
67353;BMP180;54238;52.278;21.056;2023-09-30T06:50:08;100641.40;;;18.38
67353;BMP180;54238;52.278;21.056;2023-09-30T06:52:41;100645.40;;;18.30
67353;BMP180;54238;52.278;21.056;2023-09-30T06:55:11;100648.60;;;18.30
67353;BMP180;54238;52.278;21.056;2023-09-30T06:57:48;100655.60;;;18.20
67353;BMP180;54238;52.278;21.056;2023-09-30T07:00:18;100651.80;;;18.20
67353;BMP180;54238;52.278;21.056;2023-09-30T07:02:48;100653.60;;;18.20
67353;BMP180;54238;52.278;21.056;2023-09-30T07:05:19;100656.60;;;18.20
67353;BMP180;54238;52.278;21.056;2023-09-30T07:07:51;100659.80;;;18.12
67353;BMP180;54238;52.278;21.056;2023-09-30T07:10:21;100664.60;;;18.16
67353;BMP180;54238;52.278;21.056;2023-09-30T07:12:50;100664.20;;;18.20
67353;BMP180;54238;52.278;21.056;2023-09-30T07:15:18;100672.60;;;18.20
67353;BMP180;54238;52.278;21.056;2023-09-30T07:17:45;100672.00;;;18.10
67353;BMP180;54238;52.278;21.056;2023-09-30T07:20:15;100672.60;;;18.10
67353;BMP180;54238;52.278;21.056;2023-09-30T07:22:45;100679.20;;;18.10
67353;BMP180;54238;52.278;21.056;2023-09-30T07:25:12;100678.60;;;18.16
67353;BMP180;54238;52.278;21.056;2023-09-30T07:27:44;100681.20;;;18.12
67353;BMP180;54238;52.278;21.056;2023-09-30T07:30:18;100682.20;;;18.12
67353;BMP180;54238;52.278;21.056;2023-09-30T07:32:47;100683.40;;;18.14
67353;BMP180;54238;52.278;21.056;2023-09-30T07:35:14;100685.00;;;18.18
67353;BMP180;54238;52.278;21.056;2023-09-30T07:37:43;100681.60;;;18.20
67353;BMP180;54238;52.278;21.056;2023-09-30T07:40:12;100680.20;;;18.20
67353;BMP180;54238;52.278;21.056;2023-09-30T07:42:41;100700.40;;;18.10
67353;BMP180;54238;52.278;21.056;2023-09-30T07:45:12;100698.20;;;18.10
67353;BMP180;54238;52.278;21.056;2023-09-30T07:47:46;100694.20;;;18.10
67353;BMP180;54238;52.278;21.056;2023-09-30T07:50:15;100688.40;;;18.02
67353;BMP180;54238;52.278;21.056;2023-09-30T07:52:48;100691.40;;;18.00
67353;BMP180;54238;52.278;21.056;2023-09-30T07:55:16;100691.80;;;18.06
67353;BMP180;54238;52.278;21.056;2023-09-30T07:57:50;100692.20;;;18.10
67353;BMP180;54238;52.278;21.056;2023-09-30T08:00:18;100690.00;;;18.10
67353;BMP180;54238;52.278;21.056;2023-09-30T08:02:51;100689.20;;;18.20
67353;BMP180;54238;52.278;21.056;2023-09-30T08:05:21;100682.80;;;18.24
67353;BMP180;54238;52.278;21.056;2023-09-30T08:07:55;100681.20;;;18.30
67353;BMP180;54238;52.278;21.056;2023-09-30T08:10:25;100677.80;;;18.40
67353;BMP180;54238;52.278;21.056;2023-09-30T08:12:59;100679.80;;;18.46
67353;BMP180;54238;52.278;21.056;2023-09-30T08:15:35;100688.60;;;18.54
67353;BMP180;54238;52.278;21.056;2023-09-30T08:18:06;100690.60;;;18.60
67353;BMP180;54238;52.278;21.056;2023-09-30T08:20:35;100692.40;;;18.70
67353;BMP180;54238;52.278;21.056;2023-09-30T08:23:06;100692.80;;;18.70
67353;BMP180;54238;52.278;21.056;2023-09-30T08:25:33;100693.80;;;18.70
67353;BMP180;54238;52.278;21.056;2023-09-30T08:28:05;100693.00;;;18.70
67353;BMP180;54238;52.278;21.056;2023-09-30T08:30:36;100693.40;;;18.70
67353;BMP180;54238;52.278;21.056;2023-09-30T08:33:04;100695.60;;;18.70
67353;BMP180;54238;52.278;21.056;2023-09-30T08:35:37;100700.40;;;18.70
67353;BMP180;54238;52.278;21.056;2023-09-30T08:38:07;100696.00;;;18.70
67353;BMP180;54238;52.278;21.056;2023-09-30T08:40:44;100690.60;;;18.70
67353;BMP180;54238;52.278;21.056;2023-09-30T08:43:11;100688.00;;;18.70
67353;BMP180;54238;52.278;21.056;2023-09-30T08:45:46;100692.60;;;18.80
67353;BMP180;54238;52.278;21.056;2023-09-30T08:48:23;100694.40;;;18.88
67353;BMP180;54238;52.278;21.056;2023-09-30T08:50:54;100698.40;;;18.90
67353;BMP180;54238;52.278;21.056;2023-09-30T08:53:32;100698.60;;;18.90
67353;BMP180;54238;52.278;21.056;2023-09-30T08:56:06;100700.40;;;18.94
67353;BMP180;54238;52.278;21.056;2023-09-30T08:58:37;100700.60;;;18.90
67353;BMP180;54238;52.278;21.056;2023-09-30T09:01:05;100702.80;;;18.90
67353;BMP180;54238;52.278;21.056;2023-09-30T09:03:37;100708.80;;;18.88
67353;BMP180;54238;52.278;21.056;2023-09-30T09:06:07;100708.60;;;18.80
67353;BMP180;54238;52.278;21.056;2023-09-30T09:08:36;100703.80;;;18.80
67353;BMP180;54238;52.278;21.056;2023-09-30T09:11:10;100705.60;;;18.80
67353;BMP180;54238;52.278;21.056;2023-09-30T09:13:55;100712.40;;;18.80
67353;BMP180;54238;52.278;21.056;2023-09-30T09:16:26;100709.60;;;18.80
67353;BMP180;54238;52.278;21.056;2023-09-30T09:18:53;100715.80;;;18.72
67353;BMP180;54238;52.278;21.056;2023-09-30T09:21:23;100719.20;;;18.74
67353;BMP180;54238;52.278;21.056;2023-09-30T09:23:55;100717.40;;;18.70
67353;BMP180;54238;52.278;21.056;2023-09-30T09:26:33;100725.40;;;18.70
67353;BMP180;54238;52.278;21.056;2023-09-30T09:29:05;100726.00;;;18.70
67353;BMP180;54238;52.278;21.056;2023-09-30T09:31:36;100726.60;;;18.60
67353;BMP180;54238;52.278;21.056;2023-09-30T09:34:15;100730.20;;;18.60
67353;BMP180;54238;52.278;21.056;2023-09-30T09:36:47;100727.60;;;18.60
67353;BMP180;54238;52.278;21.056;2023-09-30T09:39:29;100728.00;;;18.50
67353;BMP180;54238;52.278;21.056;2023-09-30T09:42:02;100728.00;;;18.50
67353;BMP180;54238;52.278;21.056;2023-09-30T09:44:32;100726.20;;;18.50
67353;BMP180;54238;52.278;21.056;2023-09-30T09:47:03;100726.40;;;18.52
67353;BMP180;54238;52.278;21.056;2023-09-30T09:49:32;100726.40;;;18.60
67353;BMP180;54238;52.278;21.056;2023-09-30T09:52:02;100726.60;;;18.58
67353;BMP180;54238;52.278;21.056;2023-09-30T09:54:34;100733.80;;;18.58
67353;BMP180;54238;52.278;21.056;2023-09-30T09:57:13;100735.40;;;18.56
67353;BMP180;54238;52.278;21.056;2023-09-30T09:59:44;100737.40;;;18.54
67353;BMP180;54238;52.278;21.056;2023-09-30T10:02:19;100741.20;;;18.50
67353;BMP180;54238;52.278;21.056;2023-09-30T10:04:50;100746.80;;;18.50
67353;BMP180;54238;52.278;21.056;2023-09-30T10:07:28;100756.60;;;18.50
67353;BMP180;54238;52.278;21.056;2023-09-30T10:10:00;100751.60;;;18.40
67353;BMP180;54238;52.278;21.056;2023-09-30T10:12:38;100751.40;;;18.34
67353;BMP180;54238;52.278;21.056;2023-09-30T10:20:38;100762.40;;;18.30
67353;BMP180;54238;52.278;21.056;2023-09-30T10:25:51;100772.00;;;18.30
67353;BMP180;54238;52.278;21.056;2023-09-30T10:28:43;100770.80;;;18.30
67353;BMP180;54238;52.278;21.056;2023-09-30T10:36:40;100785.60;;;18.20
67353;BMP180;54238;52.278;21.056;2023-09-30T10:39:17;100792.80;;;18.16
67353;BMP180;54238;52.278;21.056;2023-09-30T10:42:05;100797.40;;;18.10
67353;BMP180;54238;52.278;21.056;2023-09-30T10:44:32;100809.40;;;18.10
67353;BMP180;54238;52.278;21.056;2023-09-30T10:49:58;100819.80;;;18.00
67353;BMP180;54238;52.278;21.056;2023-09-30T10:52:26;100824.60;;;18.00
67353;BMP180;54238;52.278;21.056;2023-09-30T10:54:53;100833.60;;;17.90
67353;BMP180;54238;52.278;21.056;2023-09-30T10:57:29;100830.40;;;17.90
67353;BMP180;54238;52.278;21.056;2023-09-30T11:00:18;100831.20;;;17.80
67353;BMP180;54238;52.278;21.056;2023-09-30T11:02:51;100838.00;;;17.70
67353;BMP180;54238;52.278;21.056;2023-09-30T11:05:19;100838.80;;;17.70
67353;BMP180;54238;52.278;21.056;2023-09-30T11:07:53;100841.20;;;17.80
67353;BMP180;54238;52.278;21.056;2023-09-30T11:10:25;100836.80;;;17.80
67353;BMP180;54238;52.278;21.056;2023-09-30T11:13:01;100846.60;;;17.90
67353;BMP180;54238;52.278;21.056;2023-09-30T11:15:33;100853.40;;;17.98
67353;BMP180;54238;52.278;21.056;2023-09-30T11:18:16;100860.20;;;17.92
67353;BMP180;54238;52.278;21.056;2023-09-30T11:20:46;100857.00;;;17.90
67353;BMP180;54238;52.278;21.056;2023-09-30T11:23:18;100860.20;;;17.90
67353;BMP180;54238;52.278;21.056;2023-09-30T11:25:49;100866.80;;;17.90
67353;BMP180;54238;52.278;21.056;2023-09-30T11:28:18;100867.80;;;17.88
67353;BMP180;54238;52.278;21.056;2023-09-30T11:31:01;100876.40;;;17.84
67353;BMP180;54238;52.278;21.056;2023-09-30T11:33:55;100881.60;;;17.80
67353;BMP180;54238;52.278;21.056;2023-09-30T11:36:27;100881.60;;;17.70
67353;BMP180;54238;52.278;21.056;2023-09-30T11:38:59;100884.20;;;17.70
67353;BMP180;54238;52.278;21.056;2023-09-30T11:41:37;100886.60;;;17.70
67353;BMP180;54238;52.278;21.056;2023-09-30T11:44:12;100879.80;;;17.64
67353;BMP180;54238;52.278;21.056;2023-09-30T11:46:54;100872.00;;;17.60
67353;BMP180;54238;52.278;21.056;2023-09-30T11:52:04;100873.20;;;17.70
67353;BMP180;54238;52.278;21.056;2023-09-30T11:54:40;100878.20;;;17.70
67353;BMP180;54238;52.278;21.056;2023-09-30T11:57:19;100881.20;;;17.70
67353;BMP180;54238;52.278;21.056;2023-09-30T11:59:53;100884.20;;;17.70
67353;BMP180;54238;52.278;21.056;2023-09-30T12:02:20;100888.20;;;17.70
67353;BMP180;54238;52.278;21.056;2023-09-30T12:04:49;100882.40;;;17.70
67353;BMP180;54238;52.278;21.056;2023-09-30T12:07:21;100879.40;;;17.70
67353;BMP180;54238;52.278;21.056;2023-09-30T12:09:51;100880.40;;;17.80
67353;BMP180;54238;52.278;21.056;2023-09-30T12:12:18;100872.20;;;17.80
67353;BMP180;54238;52.278;21.056;2023-09-30T12:14:47;100871.00;;;17.80
67353;BMP180;54238;52.278;21.056;2023-09-30T12:17:19;100870.40;;;17.80
67353;BMP180;54238;52.278;21.056;2023-09-30T12:19:52;100876.20;;;17.90
67353;BMP180;54238;52.278;21.056;2023-09-30T12:22:23;100876.40;;;17.90
67353;BMP180;54238;52.278;21.056;2023-09-30T12:24:54;100883.80;;;18.00
67353;BMP180;54238;52.278;21.056;2023-09-30T12:27:26;100885.20;;;18.00
67353;BMP180;54238;52.278;21.056;2023-09-30T12:29:55;100886.80;;;18.10
67353;BMP180;54238;52.278;21.056;2023-09-30T12:32:30;100879.00;;;18.20
67353;BMP180;54238;52.278;21.056;2023-09-30T12:35:05;100876.80;;;18.40
67353;BMP180;54238;52.278;21.056;2023-09-30T12:37:32;100881.00;;;18.58
67353;BMP180;54238;52.278;21.056;2023-09-30T12:40:01;100877.80;;;18.90
67353;BMP180;54238;52.278;21.056;2023-09-30T12:42:34;100881.00;;;19.32
67353;BMP180;54238;52.278;21.056;2023-09-30T12:45:02;100879.80;;;19.70
67353;BMP180;54238;52.278;21.056;2023-09-30T12:47:32;100883.40;;;20.00
67353;BMP180;54238;52.278;21.056;2023-09-30T12:50:02;100865.80;;;20.42
67353;BMP180;54238;52.278;21.056;2023-09-30T12:52:31;100876.60;;;21.26
67353;BMP180;54238;52.278;21.056;2023-09-30T12:55:02;100876.20;;;21.88
67353;BMP180;54238;52.278;21.056;2023-09-30T12:57:32;100878.20;;;22.40
67353;BMP180;54238;52.278;21.056;2023-09-30T12:59:59;100884.20;;;22.82
67353;BMP180;54238;52.278;21.056;2023-09-30T13:02:30;100887.00;;;23.46
67353;BMP180;54238;52.278;21.056;2023-09-30T13:04:57;100881.00;;;23.80
67353;BMP180;54238;52.278;21.056;2023-09-30T13:07:26;100884.80;;;24.10
67353;BMP180;54238;52.278;21.056;2023-09-30T13:09:55;100886.80;;;24.20
67353;BMP180;54238;52.278;21.056;2023-09-30T13:12:26;100884.00;;;23.98
67353;BMP180;54238;52.278;21.056;2023-09-30T13:14:56;100881.60;;;23.60
67353;BMP180;54238;52.278;21.056;2023-09-30T13:17:28;100877.40;;;23.76
67353;BMP180;54238;52.278;21.056;2023-09-30T13:20:00;100881.40;;;24.00
67353;BMP180;54238;52.278;21.056;2023-09-30T13:22:34;100884.20;;;24.10
67353;BMP180;54238;52.278;21.056;2023-09-30T13:25:06;100884.80;;;23.90
67353;BMP180;54238;52.278;21.056;2023-09-30T13:27:43;100877.00;;;23.80
67353;BMP180;54238;52.278;21.056;2023-09-30T13:30:15;100875.60;;;23.60
67353;BMP180;54238;52.278;21.056;2023-09-30T13:32:45;100877.20;;;23.46
67353;BMP180;54238;52.278;21.056;2023-09-30T13:35:13;100868.40;;;23.52
67353;BMP180;54238;52.278;21.056;2023-09-30T13:37:45;100866.60;;;24.20
67353;BMP180;54238;52.278;21.056;2023-09-30T13:40:12;100868.60;;;24.80
67353;BMP180;54238;52.278;21.056;2023-09-30T13:42:42;100870.20;;;25.22
67353;BMP180;54238;52.278;21.056;2023-09-30T13:45:11;100879.60;;;25.62
67353;BMP180;54238;52.278;21.056;2023-09-30T13:47:43;100870.40;;;26.04
67353;BMP180;54238;52.278;21.056;2023-09-30T13:50:15;100876.20;;;26.30
67353;BMP180;54238;52.278;21.056;2023-09-30T13:52:47;100872.60;;;26.02
67353;BMP180;54238;52.278;21.056;2023-09-30T13:55:15;100882.80;;;26.00
67353;BMP180;54238;52.278;21.056;2023-09-30T13:57:48;100878.60;;;25.86
67353;BMP180;54238;52.278;21.056;2023-09-30T14:00:18;100878.60;;;25.80
67353;BMP180;54238;52.278;21.056;2023-09-30T14:02:45;100881.20;;;26.10
67353;BMP180;54238;52.278;21.056;2023-09-30T14:05:15;100885.40;;;26.40
67353;BMP180;54238;52.278;21.056;2023-09-30T14:07:43;100890.00;;;26.78
67353;BMP180;54238;52.278;21.056;2023-09-30T14:10:13;100890.40;;;26.80
67353;BMP180;54238;52.278;21.056;2023-09-30T14:12:45;100891.60;;;26.52
67353;BMP180;54238;52.278;21.056;2023-09-30T14:15:17;100893.20;;;26.02
67353;BMP180;54238;52.278;21.056;2023-09-30T14:17:50;100889.40;;;25.70
67353;BMP180;54238;52.278;21.056;2023-09-30T14:20:21;100888.60;;;25.92
67353;BMP180;54238;52.278;21.056;2023-09-30T14:22:52;100899.00;;;26.28
67353;BMP180;54238;52.278;21.056;2023-09-30T14:25:19;100894.80;;;26.32